Latest Weather Observations for Toowoomba

IDQ60901

Issued at 8:11 am EST Saturday 30 May 2015 (issued every 10 minutes, with the page automatically refreshed every 10 minutes)

About weather observations | Map of Brisbane area stations | Latest observations for Brisbane area | Other Formats
Station Details ID: 041529 Name: TOOWOOMBA AIRPORT Lat: -27.54 Lon: 151.91 Height: 640.9 m
Data from the previous 72 hours. | See also: Recent months at Toowoomba
Date/Time
EST
Tmp

°C
App
Tmp
°C
Dew
Point
°C
Rel
Hum
%
Delta-T

°C
Wind Press
QNH
hPa
Press
MSL
hPa
Rain
since
9 am
mm
Dir
 
Spd
km/h
Gust
km/h
Spd
kts
Gust
kts
30/08:00am 16.2 15.1 12.0 76 2.4 W 9 13 5 7 1025.8 1024.5 0.0
30/07:30am 14.9 13.9 11.1 78 2.1 WSW 7 9 4 5 1025.6 1024.3 0.0
30/07:00am 14.4 13.3 10.8 79 2.0 W 7 9 4 5 1025.5 1024.1 0.0
30/06:30am 14.2 13.1 10.8 80 1.9 W 7 9 4 5 1025.3 1023.9 0.0
30/06:00am 13.7 12.4 10.1 79 1.9 WNW 7 9 4 5 1025.0 1023.7 0.0
30/05:30am 14.6 13.5 10.8 78 2.1 NNW 7 9 4 5 1024.6 1023.3 0.0
30/05:00am 14.6 13.7 10.8 78 2.1 N 6 7 3 4 1024.4 1023.1 0.0
30/04:30am 14.7 14.8 10.3 75 2.4 CALM 0 0 0 0 1024.1 1022.7 0.0
30/04:00am 15.3 15.6 10.9 75 2.4 CALM 0 0 0 0 1024.1 1022.7 0.0
30/03:30am 14.8 15.1 10.8 77 2.2 CALM 0 0 0 0 1024.3 1023.0 0.0
30/03:00am 13.8 14.0 10.6 81 1.7 CALM 0 0 0 0 1024.3 1023.0 0.0
30/02:30am 13.3 13.5 10.5 83 1.5 CALM 0 4 0 2 1024.3 1023.0 0.0
30/02:00am 13.4 12.4 10.4 82 1.6 N 6 7 3 4 1024.5 1023.2 0.0
30/01:30am 14.4 13.5 10.6 78 2.1 NNE 6 9 3 5 1024.8 1023.5 0.0
30/01:00am 13.1 12.1 10.3 83 1.5 ENE 6 6 3 3 1025.1 1023.8 0.0
30/12:30am 14.2 13.1 10.6 79 2.0 E 7 9 4 5 1025.3 1023.9 0.0
30/12:00am 13.9 14.1 10.7 81 1.7 CALM 0 0 0 0 1025.5 1024.1 0.0
 
Date/Time
EST
Tmp

°C
App
Tmp
°C
Dew
Point
°C
Rel
Hum
%
Delta-T

°C
Wind Press
QNH
hPa
Press
MSL
hPa
Rain
since
9 am
mm
Dir
 
Spd
km/h
Gust
km/h
Spd
kts
Gust
kts
29/11:30pm 14.7 15.1 11.3 80 1.9 CALM 0 0 0 0 1025.6 1024.3 0.0
29/11:00pm 14.4 14.7 11.0 80 1.9 CALM 0 0 0 0 1025.8 1024.5 0.0
29/10:30pm 14.8 15.0 10.6 76 2.3 CALM 0 0 0 0 1026.0 1024.7 0.0
29/10:00pm 14.3 14.5 10.7 79 1.9 CALM 0 0 0 0 1025.9 1024.6 0.0
29/09:30pm 15.3 15.7 11.1 76 2.3 CALM 0 0 0 0 1025.8 1024.5 0.0
29/09:00pm 15.3 14.9 11.1 76 2.3 NNW 4 6 2 3 1025.9 1024.6 0.0
29/08:30pm 16.0 15.2 11.0 72 2.8 NNW 6 7 3 4 1025.7 1024.4 0.0
29/08:00pm 16.8 15.8 10.9 68 3.3 NNW 7 7 4 4 1025.8 1024.5 0.0
29/07:30pm 17.4 17.0 11.2 67 3.5 NNW 4 6 2 3 1025.7 1024.4 0.0
29/07:00pm 17.6 16.6 10.9 65 3.7 NW 7 9 4 5 1025.6 1024.3 0.0
29/06:30pm 18.0 17.2 11.1 64 3.9 W 6 7 3 4 1025.5 1024.1 0.0
29/06:00pm 18.3 17.5 10.9 62 4.1 NW 6 7 3 4 1025.1 1023.8 0.0
29/05:30pm 18.4 17.5 10.7 61 4.3 W 6 9 3 5 1025.0 1023.7 0.0
29/05:00pm 19.4 17.6 10.7 57 4.8 W 11 15 6 8 1024.8 1023.5 0.0
29/04:30pm 21.0 18.8 10.8 52 5.8 WNW 13 17 7 9 1024.6 1023.3 0.0
29/04:00pm 21.0 18.9 11.3 54 5.5 WNW 13 17 7 9 1024.5 1023.2 0.0
29/03:30pm 21.4 18.6 11.4 53 5.7 WNW 17 22 9 12 1024.5 1023.2 0.0
29/03:00pm 21.6 19.1 11.0 51 6.0 W 15 20 8 11 1024.3 1023.0 0.0
29/02:30pm 21.8 19.3 10.9 50 6.2 WNW 15 24 8 13 1024.4 1023.1 0.0
29/02:00pm 20.9 17.5 10.4 51 5.9 NW 19 24 10 13 1024.4 1023.1 0.0
29/01:30pm 21.5 18.7 10.0 48 6.4 W 15 22 8 12 1024.5 1023.2 0.0
29/01:00pm 21.2 18.7 11.0 52 5.8 WNW 15 20 8 11 1024.6 1023.3 0.0
29/12:30pm 21.2 19.2 11.5 54 5.6 W 13 19 7 10 1024.8 1023.5 0.0
29/12:00pm 21.3 19.8 11.9 55 5.4 NNW 11 20 6 11 1025.1 1023.8 0.0
29/11:30am 20.3 18.2 11.2 56 5.2 WNW 13 19 7 10 1025.9 1024.6 0.0
29/11:00am 20.1 17.8 11.6 58 4.8 NNW 15 20 8 11 1026.6 1025.3 0.0
29/10:30am 19.7 17.5 12.2 62 4.3 NNW 15 20 8 11 1026.6 1025.3 0.0
29/10:00am 19.3 18.1 12.8 66 3.8 N 11 17 6 9 1026.9 1025.5 0.0
29/09:30am 18.6 17.1 13.2 71 3.1 N 13 17 7 9 1027.1 1025.8 0.0
29/09:00am 17.3 15.3 12.6 74 2.7 N 15 19 8 10 1027.3 1026.0 0.0
29/08:30am 16.5 14.4 12.3 76 2.4 N 15 20 8 11 1026.6 1025.3 0.0
29/08:00am 15.5 13.3 12.1 80 1.9 N 15 22 8 12 1026.5 1025.2 0.0
29/07:30am 14.6 12.4 12.1 85 1.4 N 15 20 8 11 1026.5 1025.2 0.0
29/07:00am 14.3 11.6 11.8 85 1.4 NNE 17 22 9 12 1026.0 1024.7 0.0
29/06:30am 13.6 11.3 11.7 88 1.0 N 15 17 8 9 1026.0 1024.7 0.0
29/06:00am 13.3 12.4 12.7 96 0.3 NNE 9 15 5 8 1025.6 1024.3 0.0
29/05:30am 12.9 11.7 11.6 92 0.7 NNE 9 11 5 6 1025.6 1024.3 0.0
29/05:00am 12.7 11.4 12.5 99 0.1 NE 11 15 6 8 1025.0 1023.7 0.0
29/04:52am 10.4 8.4 10.1 98 0.2 ENE 11 13 6 7 1025.1 1023.8 0.0
29/04:37am 10.6 9.0 10.3 98 0.2 ENE 9 11 5 6 1025.3 1023.9 0.0
29/04:30am 10.9 9.8 10.6 98 0.2 ENE 7 9 4 5 1025.4 1024.0 0.0
29/04:00am 11.1 10.0 10.8 98 0.2 ENE 7 9 4 5 1025.4 1024.0 0.0
29/03:30am 11.5 10.2 11.2 98 0.2 E 9 11 5 6 1025.3 1023.9 0.0
29/03:00am 11.2 9.7 10.7 97 0.3 E 9 13 5 7 1025.3 1023.9 0.0
29/02:30am 11.1 9.5 10.2 94 0.5 E 9 11 5 6 1025.1 1023.8 0.0
29/02:00am 13.3 11.6 12.4 94 0.5 NE 13 17 7 9 1025.5 1024.1 0.0
29/01:30am 12.4 10.9 11.9 97 0.3 NE 11 15 6 8 1025.9 1024.6 0.0
29/01:00am 11.3 9.4 10.4 94 0.5 ENE 11 13 6 7 1025.8 1024.5 0.0
29/12:30am 11.4 9.0 10.1 92 0.7 ENE 13 17 7 9 1025.9 1024.6 0.0
29/12:00am 12.0 9.9 11.1 94 0.5 E 13 15 7 8 1026.0 1024.7 0.0
 
Date/Time
EST
Tmp

°C
App
Tmp
°C
Dew
Point
°C
Rel
Hum
%
Delta-T

°C
Wind Press
QNH
hPa
Press
MSL
hPa
Rain
since
9 am
mm
Dir
 
Spd
km/h
Gust
km/h
Spd
kts
Gust
kts
28/11:30pm 12.4 10.3 11.3 93 0.6 E 13 15 7 8 1026.1 1024.8 0.0
28/11:00pm 12.3 10.2 11.2 93 0.6 ENE 13 15 7 8 1026.4 1025.1 0.0
28/10:30pm 12.3 10.2 11.0 92 0.7 E 13 15 7 8 1026.5 1025.2 0.0
28/10:00pm 13.0 11.1 11.7 92 0.7 E 13 13 7 7 1026.5 1025.2 0.0
28/09:30pm 12.1 9.9 10.8 92 0.7 ESE 13 15 7 8 1026.4 1025.1 0.0
28/09:00pm 12.9 10.9 11.6 92 0.7 E 13 13 7 7 1026.3 1025.0 0.0
28/08:30pm 12.8 11.2 11.4 91 0.8 E 11 13 6 7 1026.5 1025.2 0.0
28/08:00pm 13.5 11.6 11.9 90 0.9 E 13 15 7 8 1026.3 1025.0 0.0
28/07:30pm 13.7 11.9 12.1 90 0.9 E 13 15 7 8 1026.2 1024.9 0.0
28/07:00pm 13.8 12.3 12.0 89 1.0 E 11 13 6 7 1025.8 1024.5 0.0
28/06:30pm 14.4 12.6 12.1 86 1.3 E 13 13 7 7 1025.5 1024.1 0.0
28/06:00pm 15.1 13.4 12.4 84 1.5 E 13 15 7 8 1025.3 1023.9 0.0
28/05:30pm 15.5 13.5 12.6 83 1.6 ESE 15 19 8 10 1024.8 1023.5 0.0
28/05:00pm 16.6 14.7 12.9 79 2.1 E 15 19 8 10 1024.6 1023.3 0.0
28/04:30pm 17.7 15.4 13.0 74 2.7 E 17 20 9 11 1024.2 1022.9 0.0
28/04:00pm 18.7 16.5 12.2 66 3.7 ENE 15 19 8 10 1024.3 1023.0 0.0
28/03:30pm 19.7 17.5 12.0 61 4.4 ENE 15 19 8 10 1024.5 1023.2 0.0
28/03:00pm 20.1 18.4 9.9 52 5.6 ENE 9 17 5 9 1024.1 1022.7 0.0
28/02:30pm 20.3 18.3 8.6 47 6.3 NE 9 15 5 8 1024.1 1022.7 0.0
28/02:00pm 20.1 18.8 9.1 49 6.0 WNW 6 9 3 5 1024.4 1023.1 0.0
28/01:30pm 19.4 17.7 8.4 49 5.9 ENE 7 13 4 7 1024.4 1023.1 0.0
28/01:00pm 20.1 19.2 9.1 49 6.0 NNW 4 9 2 5 1025.0 1023.7 0.0
28/12:30pm 19.0 18.0 8.9 52 5.5 N 4 7 2 4 1025.5 1024.1 0.0
28/12:00pm 18.6 18.6 9.9 57 4.7 CALM 0 0 0 0 1026.0 1024.7 0.0
28/11:30am 18.1 16.2 9.2 56 4.8 W 9 13 5 7 1026.5 1025.2 0.0
28/11:00am 18.8 18.4 11.1 61 4.3 NNE 4 11 2 6 1026.5 1025.2 0.0
28/10:30am 17.5 16.2 11.1 66 3.6 NW 9 15 5 8 1027.2 1025.9 0.0
28/10:00am 17.8 16.5 11.4 66 3.6 NNW 9 13 5 7 1027.5 1026.2 0.0
28/09:30am 17.0 15.1 11.9 72 2.9 NNW 13 19 7 10 1027.4 1026.1 0.0
28/09:00am 16.4 14.8 11.6 73 2.7 N 11 15 6 8 1027.3 1026.0 0.4
28/08:30am 15.8 15.2 12.4 80 1.9 NE 7 9 4 5 1027.1 1025.8 0.4
28/08:00am 14.4 14.1 13.4 94 0.6 ENE 7 9 4 5 1026.7 1025.4 0.4
28/07:30am 12.3 11.2 12.1 99 0.1 E 9 11 5 6 1026.5 1025.2 0.4
28/07:15am 11.5 9.8 11.3 99 0.1 E 11 11 6 6 1026.2 1024.9 0.4
28/07:00am 10.2 8.2 10.0 99 0.1 E 11 13 6 7 1026.2 1024.9 0.4
28/06:42am 9.8 7.7 9.7 99 0.1 ENE 11 13 6 7 1026.0 1024.7 0.4
28/06:41am 9.8 7.7 9.7 99 0.1 ENE 11 13 6 7 1026.0 1024.7 0.4
28/06:30am 10.3 7.9 10.1 99 0.1 E 13 15 7 8 1025.6 1024.3 0.4
28/06:00am 10.2 8.2 10.0 99 0.1 E 11 13 6 7 1025.3 1023.9 0.2
28/05:30am 10.0 7.9 9.9 99 0.1 ENE 11 13 6 7 1025.1 1023.8 0.2
28/05:00am 11.1 9.3 10.9 99 0.1 ENE 11 13 6 7 1024.7 1023.4 0.2
28/04:41am 11.5 9.4 11.3 99 0.1 E 13 15 7 8 1024.8 1023.5 0.2
28/04:30am 11.4 8.9 11.2 99 0.1 E 15 17 8 9 1024.8 1023.5 0.2
28/04:00am 11.7 9.3 11.5 99 0.1 E 15 17 8 9 1024.9 1023.6 0.2
28/03:48am 11.7 9.7 11.5 99 0.1 ENE 13 15 7 8 1024.9 1023.6 0.2
28/03:40am 11.7 9.7 11.5 99 0.1 E 13 17 7 9 1025.0 1023.7 0.2
28/03:30am 11.6 9.6 11.4 99 0.1 E 13 15 7 8 1025.0 1023.7 0.2
28/03:00am 12.0 9.7 11.8 99 0.1 E 15 17 8 9 1025.0 1023.7 0.2
28/02:30am 12.0 10.1 11.8 99 0.1 E 13 15 7 8 1024.9 1023.6 0.2
28/02:00am 12.4 10.2 12.2 99 0.1 E 15 19 8 10 1025.0 1023.7 0.2
28/01:30am 12.4 10.6 12.2 99 0.1 E 13 17 7 9 1025.1 1023.8 0.2
28/01:00am 12.3 10.1 12.1 99 0.1 E 15 19 8 10 1025.6 1024.3 0.0
28/12:30am 12.4 10.2 12.2 99 0.1 E 15 19 8 10 1025.8 1024.5 0.0
28/12:03am 11.9 9.2 11.6 98 0.2 E 17 20 9 11 1025.7 1024.4 0.0
28/12:00am 12.0 9.3 11.7 98 0.2 E 17 20 9 11 1025.7 1024.4 0.0
 
Date/Time
EST
Tmp

°C
App
Tmp
°C
Dew
Point
°C
Rel
Hum
%
Delta-T

°C
Wind Press
QNH
hPa
Press
MSL
hPa
Rain
since
9 am
mm
Dir
 
Spd
km/h
Gust
km/h
Spd
kts
Gust
kts
27/11:30pm 11.5 8.5 10.6 94 0.5 E 17 19 9 10 1025.7 1024.4 0.0
27/11:00pm 11.8 9.1 10.4 91 0.7 E 15 19 8 10 1025.7 1024.4 0.0
27/10:30pm 12.2 9.6 10.8 91 0.8 E 15 17 8 9 1025.9 1024.6 0.0
27/10:00pm 11.5 8.8 10.2 92 0.7 E 15 17 8 9 1025.8 1024.5 0.0
27/09:30pm 11.8 9.4 10.0 89 1.0 E 13 15 7 8 1025.6 1024.3 0.0
27/09:00pm 11.2 8.7 9.6 90 0.8 ESE 13 15 7 8 1025.6 1024.3 0.0
27/08:30pm 11.4 8.9 9.7 89 0.9 E 13 13 7 7 1025.6 1024.3 0.0
27/08:00pm 12.4 10.4 10.1 86 1.2 E 11 13 6 7 1025.6 1024.3 0.0
27/07:30pm 12.5 10.9 10.2 86 1.2 E 9 13 5 7 1025.5 1024.1 0.0
27/07:00pm 13.3 11.5 10.8 85 1.3 ENE 11 11 6 6 1025.3 1023.9 0.0
27/06:30pm 13.4 11.6 10.8 84 1.4 E 11 13 6 7 1024.9 1023.6 0.0
27/06:00pm 13.7 11.9 10.7 82 1.6 E 11 15 6 8 1024.6 1023.3 0.0
27/05:30pm 14.7 12.5 10.7 77 2.2 E 13 15 7 8 1024.4 1023.1 0.0
27/05:00pm 15.7 13.3 10.2 70 3.0 ENE 13 17 7 9 1024.5 1023.2 0.0
27/04:30pm 16.9 14.0 9.8 63 3.9 ENE 15 17 8 9 1024.5 1023.2 0.0
27/04:00pm 18.3 16.5 9.4 56 4.8 ENE 9 13 5 7 1024.2 1022.9 0.0
27/03:30pm 17.7 15.5 9.3 58 4.5 ESE 11 17 6 9 1024.1 1022.7 0.0
27/03:00pm 17.7 15.2 9.8 60 4.3 ESE 13 17 7 9 1024.1 1022.7 0.0
27/02:30pm 18.7 15.8 9.8 56 4.9 SE 15 19 8 10 1024.2 1022.9 0.0
27/02:00pm 18.3 15.9 8.6 53 5.2 SE 11 15 6 8 1024.3 1023.0 0.0
27/01:30pm 18.8 16.5 9.0 53 5.3 ESE 11 15 6 8 1024.5 1023.2 0.0
27/01:00pm 18.7 16.5 7.8 49 5.7 ENE 9 15 5 8 1024.8 1023.5 0.0
27/12:30pm 17.8 16.1 9.7 59 4.4 E 9 11 5 6 1025.1 1023.8 0.0
27/12:00pm 17.1 15.3 9.5 61 4.1 ENE 9 19 5 10 1026.0 1024.7 0.0
27/11:30am 17.7 15.6 9.8 60 4.3 ENE 11 17 6 9 1026.5 1025.2 0.0
27/11:00am 17.3 15.1 10.9 66 3.5 NE 13 17 7 9 1027.3 1026.0 0.0
27/10:30am 16.6 14.4 10.7 68 3.3 ENE 13 17 7 9 1027.6 1026.3 0.0
27/10:00am 15.9 13.7 10.9 72 2.7 ENE 13 17 7 9 1027.8 1026.5 0.0
27/09:30am 15.7 13.4 11.9 78 2.1 E 15 19 8 10 1027.6 1026.3 0.0
27/09:28am 15.9 13.7 12.1 78 2.1 ESE 15 19 8 10 1027.6 1026.3 0.0
27/09:00am 15.0 12.9 12.3 84 1.5 E 15 17 8 9 1027.5 1026.2 0.0
27/08:30am 13.7 12.7 13.5 99 0.1 E 11 15 6 8 1027.4 1026.1 0.0

Latest Capital City Observations: Canberra | Sydney | Melbourne | Brisbane | Adelaide | Perth | Hobart | Darwin

Other Formats:

Comma delimited format used in spreadsheet applications
http://www.bom.gov.au/fwo/IDQ60901/IDQ60901.95551.axf

JavaScript Object Notation format (JSON) in row-major order
http://www.bom.gov.au/fwo/IDQ60901/IDQ60901.95551.json